Terminal Aerodrome Forecast
Issued by NWS

Home | Current Version | Previous Version | Text Only | Print | Product List | Glossary On
Versions: 1 2 3 4 5 6 7 8 9 10 11 12 13 14 15 16 17 18 19 20 21 22 23 24 25 26 27 28 29 30 31 32 33
000
FTUS45 KBOU 100539
TAFBJC
TAF
KBJC 100539Z 1006/1106 28014KT P6SM SKC
     FM100800 26015G24KT P6SM FEW220
     FM101200 28018G30KT P6SM FEW100 BKN220
     FM101900 31012G18KT P6SM FEW120 SCT220
     FM110200 25009KT P6SM SCT220=

USA.gov is the U.S. government's official web portal to all federal, state and local government web resources and services.